sensor_id;sensor_type;location;lat;lon;timestamp;pressure;altitude;pressure_sealevel;temperature;humidity
60089;BME280;45961;53.574;55.878;2024-01-16T00:00:17;101014.31;;;-17.36;67.81
60089;BME280;45961;53.574;55.878;2024-01-16T00:01:18;101020.31;;;-17.34;68.01
60089;BME280;45961;53.574;55.878;2024-01-16T00:02:20;101009.84;;;-17.26;67.93
60089;BME280;45961;53.574;55.878;2024-01-16T00:03:21;101016.97;;;-17.34;67.93
60089;BME280;45961;53.574;55.878;2024-01-16T00:04:21;101021.31;;;-17.26;68.14
60089;BME280;45961;53.574;55.878;2024-01-16T00:05:22;101020.53;;;-17.20;67.96
60089;BME280;45961;53.574;55.878;2024-01-16T00:06:23;101013.50;;;-17.16;68.21
60089;BME280;45961;53.574;55.878;2024-01-16T00:07:23;101011.53;;;-17.19;67.89
60089;BME280;45961;53.574;55.878;2024-01-16T00:08:24;101010.66;;;-17.20;68.05
60089;BME280;45961;53.574;55.878;2024-01-16T00:09:25;101010.81;;;-17.18;68.02
60089;BME280;45961;53.574;55.878;2024-01-16T00:10:25;101012.91;;;-17.21;67.87
60089;BME280;45961;53.574;55.878;2024-01-16T00:11:26;101010.66;;;-17.20;68.01
60089;BME280;45961;53.574;55.878;2024-01-16T00:12:27;101003.09;;;-17.14;68.06
60089;BME280;45961;53.574;55.878;2024-01-16T00:13:27;101008.53;;;-17.16;67.94
60089;BME280;45961;53.574;55.878;2024-01-16T00:14:28;100999.94;;;-17.13;68.11
60089;BME280;45961;53.574;55.878;2024-01-16T00:15:29;101000.34;;;-17.10;68.07
60089;BME280;45961;53.574;55.878;2024-01-16T00:16:29;100999.25;;;-17.12;67.97
60089;BME280;45961;53.574;55.878;2024-01-16T00:17:30;100990.44;;;-17.10;68.05
60089;BME280;45961;53.574;55.878;2024-01-16T00:18:31;100990.84;;;-17.07;67.88
60089;BME280;45961;53.574;55.878;2024-01-16T00:19:32;100980.41;;;-17.04;67.99
60089;BME280;45961;53.574;55.878;2024-01-16T00:20:32;100986.28;;;-17.04;67.91
60089;BME280;45961;53.574;55.878;2024-01-16T00:21:37;100983.00;;;-17.10;67.84
60089;BME280;45961;53.574;55.878;2024-01-16T00:22:38;100980.63;;;-17.03;67.78
60089;BME280;45961;53.574;55.878;2024-01-16T00:23:39;100973.22;;;-17.03;67.86
60089;BME280;45961;53.574;55.878;2024-01-16T00:24:40;100973.41;;;-17.01;67.90
60089;BME280;45961;53.574;55.878;2024-01-16T00:25:40;100972.91;;;-16.99;67.92
60089;BME280;45961;53.574;55.878;2024-01-16T00:26:42;100976.28;;;-16.98;67.88
60089;BME280;45961;53.574;55.878;2024-01-16T00:27:42;100970.72;;;-17.03;67.72
60089;BME280;45961;53.574;55.878;2024-01-16T00:28:43;100966.53;;;-16.97;67.93
60089;BME280;45961;53.574;55.878;2024-01-16T00:29:44;100967.75;;;-16.87;68.03
60089;BME280;45961;53.574;55.878;2024-01-16T00:30:44;100961.78;;;-16.82;67.92
60089;BME280;45961;53.574;55.878;2024-01-16T00:31:45;100966.94;;;-16.94;67.76
60089;BME280;45961;53.574;55.878;2024-01-16T00:32:46;100960.84;;;-17.03;67.62
60089;BME280;45961;53.574;55.878;2024-01-16T00:33:47;100967.25;;;-16.98;67.71
60089;BME280;45961;53.574;55.878;2024-01-16T00:34:47;100964.47;;;-16.94;67.89
60089;BME280;45961;53.574;55.878;2024-01-16T00:35:48;100961.38;;;-16.85;67.84
60089;BME280;45961;53.574;55.878;2024-01-16T00:36:49;100959.22;;;-16.89;67.77
60089;BME280;45961;53.574;55.878;2024-01-16T00:37:50;100951.00;;;-16.83;67.97
60089;BME280;45961;53.574;55.878;2024-01-16T00:38:51;100946.53;;;-16.85;67.87
60089;BME280;45961;53.574;55.878;2024-01-16T00:39:52;100945.53;;;-16.80;67.92
60089;BME280;45961;53.574;55.878;2024-01-16T00:40:52;100940.69;;;-16.86;67.89
60089;BME280;45961;53.574;55.878;2024-01-16T00:41:53;100951.09;;;-16.88;67.97
60089;BME280;45961;53.574;55.878;2024-01-16T00:42:54;100950.28;;;-16.82;68.01
60089;BME280;45961;53.574;55.878;2024-01-16T00:43:54;100944.53;;;-16.75;67.86
60089;BME280;45961;53.574;55.878;2024-01-16T00:44:55;100951.97;;;-16.75;68.01
60089;BME280;45961;53.574;55.878;2024-01-16T00:45:56;100955.81;;;-16.77;67.74
60089;BME280;45961;53.574;55.878;2024-01-16T00:46:57;100950.91;;;-16.70;67.80
60089;BME280;45961;53.574;55.878;2024-01-16T00:47:57;100953.09;;;-16.66;67.61
60089;BME280;45961;53.574;55.878;2024-01-16T00:48:58;100961.22;;;-16.67;67.54
60089;BME280;45961;53.574;55.878;2024-01-16T00:50:00;100959.63;;;-16.66;67.58
60089;BME280;45961;53.574;55.878;2024-01-16T00:51:01;100952.00;;;-16.68;67.63
60089;BME280;45961;53.574;55.878;2024-01-16T00:52:02;100955.97;;;-16.63;67.36
60089;BME280;45961;53.574;55.878;2024-01-16T00:53:03;100957.34;;;-16.65;67.38
60089;BME280;45961;53.574;55.878;2024-01-16T00:54:04;100959.50;;;-16.61;67.50
60089;BME280;45961;53.574;55.878;2024-01-16T00:55:06;100953.09;;;-16.66;67.54
60089;BME280;45961;53.574;55.878;2024-01-16T00:56:07;100947.44;;;-16.65;67.50
60089;BME280;45961;53.574;55.878;2024-01-16T00:57:10;100947.56;;;-16.71;67.69
60089;BME280;45961;53.574;55.878;2024-01-16T00:58:11;100942.25;;;-16.74;67.73
60089;BME280;45961;53.574;55.878;2024-01-16T00:59:11;100943.75;;;-16.61;67.78
60089;BME280;45961;53.574;55.878;2024-01-16T01:00:12;100941.09;;;-16.63;67.93
60089;BME280;45961;53.574;55.878;2024-01-16T01:01:13;100938.22;;;-16.66;67.89
60089;BME280;45961;53.574;55.878;2024-01-16T01:02:14;100937.53;;;-16.65;67.87
60089;BME280;45961;53.574;55.878;2024-01-16T01:03:15;100939.91;;;-16.72;67.62
60089;BME280;45961;53.574;55.878;2024-01-16T01:04:15;100940.13;;;-16.71;67.66
60089;BME280;45961;53.574;55.878;2024-01-16T01:05:17;100945.44;;;-16.75;67.70
60089;BME280;45961;53.574;55.878;2024-01-16T01:06:17;100947.03;;;-16.75;67.94
60089;BME280;45961;53.574;55.878;2024-01-16T01:07:18;100936.31;;;-16.61;67.90
60089;BME280;45961;53.574;55.878;2024-01-16T01:08:19;100949.34;;;-16.70;67.60
60089;BME280;45961;53.574;55.878;2024-01-16T01:09:20;100942.78;;;-16.69;67.56
60089;BME280;45961;53.574;55.878;2024-01-16T01:10:21;100947.44;;;-16.65;67.47
60089;BME280;45961;53.574;55.878;2024-01-16T01:11:21;100945.75;;;-16.59;67.46
60089;BME280;45961;53.574;55.878;2024-01-16T01:12:22;100947.25;;;-16.66;67.47
60089;BME280;45961;53.574;55.878;2024-01-16T01:13:23;100942.00;;;-16.62;67.49
60089;BME280;45961;53.574;55.878;2024-01-16T01:14:25;100964.34;;;-16.75;67.39
60089;BME280;45961;53.574;55.878;2024-01-16T01:15:31;100953.94;;;-16.73;67.51
60089;BME280;45961;53.574;55.878;2024-01-16T01:16:31;100955.13;;;-16.76;67.37
60089;BME280;45961;53.574;55.878;2024-01-16T01:17:32;100961.28;;;-16.80;67.55
60089;BME280;45961;53.574;55.878;2024-01-16T01:18:33;100973.16;;;-16.77;67.53
60089;BME280;45961;53.574;55.878;2024-01-16T01:19:33;100970.56;;;-16.72;67.50
60089;BME280;45961;53.574;55.878;2024-01-16T01:20:34;100972.13;;;-16.72;67.29
60089;BME280;45961;53.574;55.878;2024-01-16T01:21:35;100966.63;;;-16.77;67.39
60089;BME280;45961;53.574;55.878;2024-01-16T01:22:36;100972.56;;;-16.82;67.28
60089;BME280;45961;53.574;55.878;2024-01-16T01:23:37;100972.19;;;-16.85;67.33
60089;BME280;45961;53.574;55.878;2024-01-16T01:24:38;100974.44;;;-16.74;67.45
60089;BME280;45961;53.574;55.878;2024-01-16T01:25:39;100977.03;;;-16.79;67.29
60089;BME280;45961;53.574;55.878;2024-01-16T01:26:42;100980.59;;;-16.77;67.45
60089;BME280;45961;53.574;55.878;2024-01-16T01:27:43;100979.94;;;-16.69;67.43
60089;BME280;45961;53.574;55.878;2024-01-16T01:28:44;100985.28;;;-16.66;67.41
60089;BME280;45961;53.574;55.878;2024-01-16T01:29:44;100990.88;;;-16.74;67.25
60089;BME280;45961;53.574;55.878;2024-01-16T01:30:45;100990.09;;;-16.80;67.24
60089;BME280;45961;53.574;55.878;2024-01-16T01:31:46;100977.72;;;-16.80;67.29
60089;BME280;45961;53.574;55.878;2024-01-16T01:32:48;100978.50;;;-16.74;67.44
60089;BME280;45961;53.574;55.878;2024-01-16T01:33:49;100983.31;;;-16.69;67.51
60089;BME280;45961;53.574;55.878;2024-01-16T01:34:49;100981.28;;;-16.78;67.30
60089;BME280;45961;53.574;55.878;2024-01-16T01:35:50;100977.47;;;-16.69;67.46
60089;BME280;45961;53.574;55.878;2024-01-16T01:36:51;100971.25;;;-16.73;67.41
60089;BME280;45961;53.574;55.878;2024-01-16T01:37:52;100975.88;;;-16.69;67.42
60089;BME280;45961;53.574;55.878;2024-01-16T01:38:52;100978.97;;;-16.64;67.42
60089;BME280;45961;53.574;55.878;2024-01-16T01:39:53;100975.78;;;-16.63;67.38
60089;BME280;45961;53.574;55.878;2024-01-16T01:40:54;100976.66;;;-16.62;67.33
60089;BME280;45961;53.574;55.878;2024-01-16T01:41:54;100976.66;;;-16.62;67.48
60089;BME280;45961;53.574;55.878;2024-01-16T01:42:55;100975.38;;;-16.66;67.25
60089;BME280;45961;53.574;55.878;2024-01-16T01:43:56;100975.84;;;-16.76;67.22
60089;BME280;45961;53.574;55.878;2024-01-16T01:44:56;100970.91;;;-16.76;67.33
60089;BME280;45961;53.574;55.878;2024-01-16T01:47:04;100979.53;;;-16.72;67.46
60089;BME280;45961;53.574;55.878;2024-01-16T01:48:05;100983.91;;;-16.64;67.34
60089;BME280;45961;53.574;55.878;2024-01-16T01:49:07;100983.22;;;-16.63;67.33
60089;BME280;45961;53.574;55.878;2024-01-16T01:50:09;100981.22;;;-16.65;67.40
60089;BME280;45961;53.574;55.878;2024-01-16T01:51:10;100980.22;;;-16.60;67.35
60089;BME280;45961;53.574;55.878;2024-01-16T01:52:11;100981.94;;;-16.66;67.37
60089;BME280;45961;53.574;55.878;2024-01-16T01:53:12;100974.50;;;-16.66;67.51
60089;BME280;45961;53.574;55.878;2024-01-16T01:54:12;100971.78;;;-16.75;67.67
60089;BME280;45961;53.574;55.878;2024-01-16T01:55:14;100975.31;;;-16.73;67.66
60089;BME280;45961;53.574;55.878;2024-01-16T01:56:16;100971.25;;;-16.73;67.80
60089;BME280;45961;53.574;55.878;2024-01-16T01:57:17;100974.25;;;-16.75;67.72
60089;BME280;45961;53.574;55.878;2024-01-16T01:58:19;100974.09;;;-16.70;67.74
60089;BME280;45961;53.574;55.878;2024-01-16T01:59:19;100980.16;;;-16.67;67.79
60089;BME280;45961;53.574;55.878;2024-01-16T02:00:23;100978.56;;;-16.67;67.66
60089;BME280;45961;53.574;55.878;2024-01-16T02:01:24;100964.09;;;-16.64;67.66
60089;BME280;45961;53.574;55.878;2024-01-16T02:02:26;100968.84;;;-16.65;67.68
60089;BME280;45961;53.574;55.878;2024-01-16T02:03:27;100978.25;;;-16.63;67.63
60089;BME280;45961;53.574;55.878;2024-01-16T02:04:29;100976.47;;;-16.64;67.63
60089;BME280;45961;53.574;55.878;2024-01-16T02:05:31;100980.81;;;-16.76;67.62
60089;BME280;45961;53.574;55.878;2024-01-16T02:06:32;100981.16;;;-16.73;67.75
60089;BME280;45961;53.574;55.878;2024-01-16T02:07:33;100968.66;;;-16.67;67.65
60089;BME280;45961;53.574;55.878;2024-01-16T02:08:35;100973.59;;;-16.67;67.76
60089;BME280;45961;53.574;55.878;2024-01-16T02:09:35;100975.06;;;-16.62;67.87
60089;BME280;45961;53.574;55.878;2024-01-16T02:10:37;100968.59;;;-16.74;67.63
60089;BME280;45961;53.574;55.878;2024-01-16T02:11:40;100974.59;;;-16.72;67.67
60089;BME280;45961;53.574;55.878;2024-01-16T02:12:41;100974.25;;;-16.75;67.86
60089;BME280;45961;53.574;55.878;2024-01-16T02:13:42;100981.16;;;-16.73;67.75
60089;BME280;45961;53.574;55.878;2024-01-16T02:14:43;100979.50;;;-16.79;67.87
60089;BME280;45961;53.574;55.878;2024-01-16T02:15:43;100978.31;;;-16.88;67.90
60089;BME280;45961;53.574;55.878;2024-01-16T02:16:44;100978.81;;;-16.78;67.95
60089;BME280;45961;53.574;55.878;2024-01-16T02:17:47;100984.19;;;-16.68;67.93
60089;BME280;45961;53.574;55.878;2024-01-16T02:19:07;100985.75;;;-16.76;67.78
60089;BME280;45961;53.574;55.878;2024-01-16T02:20:08;100985.25;;;-16.86;67.93
60089;BME280;45961;53.574;55.878;2024-01-16T02:21:10;100978.94;;;-16.84;67.99
60089;BME280;45961;53.574;55.878;2024-01-16T02:22:12;100980.00;;;-16.82;67.94
60089;BME280;45961;53.574;55.878;2024-01-16T02:23:14;100977.56;;;-16.95;68.11
60089;BME280;45961;53.574;55.878;2024-01-16T02:24:16;100976.94;;;-16.86;68.12
60089;BME280;45961;53.574;55.878;2024-01-16T02:25:17;100972.09;;;-16.79;68.24
60089;BME280;45961;53.574;55.878;2024-01-16T02:26:18;100974.66;;;-16.85;68.25
60089;BME280;45961;53.574;55.878;2024-01-16T02:27:19;100970.69;;;-16.77;68.13
60089;BME280;45961;53.574;55.878;2024-01-16T02:28:21;100977.03;;;-16.79;68.24
60089;BME280;45961;53.574;55.878;2024-01-16T02:29:22;100985.06;;;-16.75;68.27
60089;BME280;45961;53.574;55.878;2024-01-16T02:30:22;100976.34;;;-16.78;68.14
60089;BME280;45961;53.574;55.878;2024-01-16T02:31:23;100982.19;;;-16.78;68.26
60089;BME280;45961;53.574;55.878;2024-01-16T02:32:24;100980.81;;;-16.69;68.19
60089;BME280;45961;53.574;55.878;2024-01-16T02:33:25;100979.94;;;-16.69;68.11
60089;BME280;45961;53.574;55.878;2024-01-16T02:34:26;100983.63;;;-16.73;68.13
60089;BME280;45961;53.574;55.878;2024-01-16T02:35:26;100988.41;;;-16.74;67.95
60089;BME280;45961;53.574;55.878;2024-01-16T02:36:27;100991.59;;;-16.75;68.02
60089;BME280;45961;53.574;55.878;2024-01-16T02:37:29;100991.63;;;-16.68;68.25
60089;BME280;45961;53.574;55.878;2024-01-16T02:38:30;100991.78;;;-16.74;67.99
60089;BME280;45961;53.574;55.878;2024-01-16T02:39:31;100988.66;;;-16.65;68.03
60089;BME280;45961;53.574;55.878;2024-01-16T02:40:32;100983.50;;;-16.67;68.16
60089;BME280;45961;53.574;55.878;2024-01-16T02:41:32;100982.81;;;-16.66;67.95
60089;BME280;45961;53.574;55.878;2024-01-16T02:42:33;100984.41;;;-16.66;68.00
60089;BME280;45961;53.574;55.878;2024-01-16T02:43:34;100982.22;;;-16.71;68.01
60089;BME280;45961;53.574;55.878;2024-01-16T02:44:34;100982.41;;;-16.69;68.13
60089;BME280;45961;53.574;55.878;2024-01-16T02:45:35;100974.50;;;-16.66;68.07
60089;BME280;45961;53.574;55.878;2024-01-16T02:46:36;100973.59;;;-16.67;68.27
60089;BME280;45961;53.574;55.878;2024-01-16T02:47:39;100971.72;;;-16.62;68.21
60089;BME280;45961;53.574;55.878;2024-01-16T02:48:40;100964.28;;;-16.62;68.14
60089;BME280;45961;53.574;55.878;2024-01-16T02:49:42;100959.72;;;-16.59;68.30
60089;BME280;45961;53.574;55.878;2024-01-16T02:50:43;100951.97;;;-16.55;68.28
60089;BME280;45961;53.574;55.878;2024-01-16T02:51:44;100961.41;;;-16.65;68.26
60089;BME280;45961;53.574;55.878;2024-01-16T02:52:44;100964.72;;;-16.52;68.29
60089;BME280;45961;53.574;55.878;2024-01-16T02:53:45;100955.34;;;-16.55;68.19
60089;BME280;45961;53.574;55.878;2024-01-16T02:54:46;100948.31;;;-16.52;68.25
60089;BME280;45961;53.574;55.878;2024-01-16T02:55:46;100961.94;;;-16.48;68.22
60089;BME280;45961;53.574;55.878;2024-01-16T02:56:47;100953.34;;;-16.57;68.20
60089;BME280;45961;53.574;55.878;2024-01-16T02:57:48;100961.25;;;-16.47;68.22
60089;BME280;45961;53.574;55.878;2024-01-16T02:58:49;100952.56;;;-16.51;68.36
60089;BME280;45961;53.574;55.878;2024-01-16T02:59:49;100955.34;;;-16.55;68.46
60089;BME280;45961;53.574;55.878;2024-01-16T03:00:51;100951.28;;;-16.54;68.37
60089;BME280;45961;53.574;55.878;2024-01-16T03:01:51;100955.09;;;-16.44;68.36
60089;BME280;45961;53.574;55.878;2024-01-16T03:02:52;100949.25;;;-16.44;68.49
60089;BME280;45961;53.574;55.878;2024-01-16T03:03:53;100946.72;;;-16.51;68.43
60089;BME280;45961;53.574;55.878;2024-01-16T03:04:54;100944.91;;;-16.52;68.40
60089;BME280;45961;53.574;55.878;2024-01-16T03:05:55;100940.56;;;-16.48;68.45
60089;BME280;45961;53.574;55.878;2024-01-16T03:06:56;100943.53;;;-16.50;68.37
60089;BME280;45961;53.574;55.878;2024-01-16T03:07:57;100933.69;;;-16.43;68.65
60089;BME280;45961;53.574;55.878;2024-01-16T03:08:58;100941.06;;;-16.50;68.74
60089;BME280;45961;53.574;55.878;2024-01-16T03:09:58;100937.47;;;-16.52;68.58
60089;BME280;45961;53.574;55.878;2024-01-16T03:10:59;100939.38;;;-16.57;68.59
60089;BME280;45961;53.574;55.878;2024-01-16T03:12:00;100936.03;;;-16.57;68.65
60089;BME280;45961;53.574;55.878;2024-01-16T03:13:00;100940.97;;;-16.57;68.56
60089;BME280;45961;53.574;55.878;2024-01-16T03:14:01;100936.91;;;-16.57;68.63
60089;BME280;45961;53.574;55.878;2024-01-16T03:15:03;100925.63;;;-16.55;68.64
60089;BME280;45961;53.574;55.878;2024-01-16T03:16:06;100918.25;;;-16.48;68.76
60089;BME280;45961;53.574;55.878;2024-01-16T03:17:07;100933.22;;;-16.53;68.76
60089;BME280;45961;53.574;55.878;2024-01-16T03:18:07;100931.38;;;-16.61;68.77
60089;BME280;45961;53.574;55.878;2024-01-16T03:19:08;100937.28;;;-16.54;68.69
60089;BME280;45961;53.574;55.878;2024-01-16T03:20:09;100938.44;;;-16.45;69.00
60089;BME280;45961;53.574;55.878;2024-01-16T03:21:10;100939.63;;;-16.48;68.71
60089;BME280;45961;53.574;55.878;2024-01-16T03:22:11;100943.66;;;-16.36;68.70
60089;BME280;45961;53.574;55.878;2024-01-16T03:23:12;100944.94;;;-16.32;68.71
60089;BME280;45961;53.574;55.878;2024-01-16T03:24:12;100951.63;;;-16.38;68.66
60089;BME280;45961;53.574;55.878;2024-01-16T03:25:13;100955.47;;;-16.40;68.50
60089;BME280;45961;53.574;55.878;2024-01-16T03:26:14;100960.44;;;-16.40;68.65
60089;BME280;45961;53.574;55.878;2024-01-16T03:27:15;100962.72;;;-16.42;68.70
60089;BME280;45961;53.574;55.878;2024-01-16T03:28:15;100955.47;;;-16.40;68.86
60089;BME280;45961;53.574;55.878;2024-01-16T03:29:16;100957.44;;;-16.38;69.04
60089;BME280;45961;53.574;55.878;2024-01-16T03:30:17;100963.78;;;-16.40;68.95
60089;BME280;45961;53.574;55.878;2024-01-16T03:31:18;100969.72;;;-16.32;69.07
60089;BME280;45961;53.574;55.878;2024-01-16T03:32:21;100976.16;;;-16.27;69.11
60089;BME280;45961;53.574;55.878;2024-01-16T03:33:22;100967.31;;;-16.25;69.10
60089;BME280;45961;53.574;55.878;2024-01-16T03:34:23;100956.19;;;-16.22;69.25
60089;BME280;45961;53.574;55.878;2024-01-16T03:35:24;100952.50;;;-16.18;69.05
60089;BME280;45961;53.574;55.878;2024-01-16T03:36:25;100955.00;;;-16.18;69.05
60089;BME280;45961;53.574;55.878;2024-01-16T03:37:26;100955.31;;;-16.22;69.19
60089;BME280;45961;53.574;55.878;2024-01-16T03:38:26;100954.50;;;-16.15;69.22
60089;BME280;45961;53.574;55.878;2024-01-16T03:39:27;100960.38;;;-16.08;69.21
60089;BME280;45961;53.574;55.878;2024-01-16T03:40:28;100958.91;;;-16.13;69.40
60089;BME280;45961;53.574;55.878;2024-01-16T03:41:34;100955.94;;;-16.10;69.46
60089;BME280;45961;53.574;55.878;2024-01-16T03:42:35;100966.81;;;-16.03;69.38
60089;BME280;45961;53.574;55.878;2024-01-16T03:43:36;100954.22;;;-16.04;69.46
60089;BME280;45961;53.574;55.878;2024-01-16T03:44:40;100962.75;;;-16.02;69.46
60089;BME280;45961;53.574;55.878;2024-01-16T03:45:58;100952.19;;;-15.94;69.60
60089;BME280;45961;53.574;55.878;2024-01-16T03:46:58;100949.16;;;-15.99;69.45
60089;BME280;45961;53.574;55.878;2024-01-16T03:47:59;100950.28;;;-15.89;69.31
60089;BME280;45961;53.574;55.878;2024-01-16T03:49:00;100945.69;;;-15.86;69.25
60089;BME280;45961;53.574;55.878;2024-01-16T03:50:00;100954.66;;;-15.94;68.94
60089;BME280;45961;53.574;55.878;2024-01-16T03:51:01;100964.03;;;-15.99;68.95
60089;BME280;45961;53.574;55.878;2024-01-16T03:52:03;100952.69;;;-15.97;68.84
60089;BME280;45961;53.574;55.878;2024-01-16T03:53:03;100964.03;;;-15.99;68.75
60089;BME280;45961;53.574;55.878;2024-01-16T03:54:04;100959.63;;;-15.94;68.79
60089;BME280;45961;53.574;55.878;2024-01-16T03:55:05;100967.22;;;-16.00;68.75
60089;BME280;45961;53.574;55.878;2024-01-16T03:56:06;100968.53;;;-16.09;68.44
60089;BME280;45961;53.574;55.878;2024-01-16T03:57:08;100963.63;;;-16.02;68.45
60089;BME280;45961;53.574;55.878;2024-01-16T03:58:08;100961.34;;;-16.00;68.44
60089;BME280;45961;53.574;55.878;2024-01-16T03:59:09;100962.09;;;-15.94;68.41
60089;BME280;45961;53.574;55.878;2024-01-16T04:00:13;100961.53;;;-15.99;68.49
60089;BME280;45961;53.574;55.878;2024-01-16T04:01:14;100956.06;;;-15.96;68.51
60089;BME280;45961;53.574;55.878;2024-01-16T04:02:14;100942.09;;;-15.96;68.59
60089;BME280;45961;53.574;55.878;2024-01-16T04:03:15;100947.94;;;-16.15;68.57
60089;BME280;45961;53.574;55.878;2024-01-16T04:04:16;100942.59;;;-16.18;68.46
60089;BME280;45961;53.574;55.878;2024-01-16T04:05:17;100942.59;;;-16.18;68.48
60089;BME280;45961;53.574;55.878;2024-01-16T04:06:17;100938.84;;;-16.22;68.66
60089;BME280;45961;53.574;55.878;2024-01-16T04:07:18;100941.47;;;-16.27;68.64
60089;BME280;45961;53.574;55.878;2024-01-16T04:08:19;100941.81;;;-16.24;68.71
60089;BME280;45961;53.574;55.878;2024-01-16T04:09:20;100933.50;;;-16.25;68.67
60089;BME280;45961;53.574;55.878;2024-01-16T04:10:20;100943.16;;;-16.33;68.79
60089;BME280;45961;53.574;55.878;2024-01-16T04:11:21;100934.06;;;-16.20;69.02
60089;BME280;45961;53.574;55.878;2024-01-16T04:12:22;100928.13;;;-16.15;68.98
60089;BME280;45961;53.574;55.878;2024-01-16T04:13:23;100934.34;;;-16.11;68.59
60089;BME280;45961;53.574;55.878;2024-01-16T04:14:23;100933.00;;;-16.22;68.69
60089;BME280;45961;53.574;55.878;2024-01-16T04:15:24;100939.22;;;-16.19;68.50
60089;BME280;45961;53.574;55.878;2024-01-16T04:16:25;100947.41;;;-16.12;68.60
60089;BME280;45961;53.574;55.878;2024-01-16T04:17:26;100948.63;;;-16.16;68.40
60089;BME280;45961;53.574;55.878;2024-01-16T04:18:27;100943.88;;;-16.14;68.53
60089;BME280;45961;53.574;55.878;2024-01-16T04:19:27;100939.66;;;-16.08;68.58
60089;BME280;45961;53.574;55.878;2024-01-16T04:20:29;100939.47;;;-16.10;68.68
60089;BME280;45961;53.574;55.878;2024-01-16T04:21:29;100945.81;;;-16.12;68.58
60089;BME280;45961;53.574;55.878;2024-01-16T04:22:30;100939.56;;;-16.03;68.70
60089;BME280;45961;53.574;55.878;2024-01-16T04:23:31;100938.50;;;-15.98;68.67
60089;BME280;45961;53.574;55.878;2024-01-16T04:24:32;100939.22;;;-15.99;68.61
60089;BME280;45961;53.574;55.878;2024-01-16T04:25:33;100946.47;;;-16.00;68.42
60089;BME280;45961;53.574;55.878;2024-01-16T04:26:35;100951.38;;;-16.07;68.51
60089;BME280;45961;53.574;55.878;2024-01-16T04:27:36;100943.72;;;-16.09;68.17
60089;BME280;45961;53.574;55.878;2024-01-16T04:28:36;100941.56;;;-16.13;68.41
60089;BME280;45961;53.574;55.878;2024-01-16T04:29:37;100949.97;;;-16.05;68.39
60089;BME280;45961;53.574;55.878;2024-01-16T04:30:38;100948.44;;;-15.98;68.51
60089;BME280;45961;53.574;55.878;2024-01-16T04:31:39;100946.53;;;-15.93;68.23
60089;BME280;45961;53.574;55.878;2024-01-16T04:32:43;100952.34;;;-16.00;68.29
60089;BME280;45961;53.574;55.878;2024-01-16T04:33:43;100954.34;;;-15.90;68.24
60089;BME280;45961;53.574;55.878;2024-01-16T04:34:44;100954.19;;;-15.84;68.04
60089;BME280;45961;53.574;55.878;2024-01-16T04:35:45;100954.97;;;-15.78;68.05
60089;BME280;45961;53.574;55.878;2024-01-16T04:36:46;100960.00;;;-15.71;68.02
60089;BME280;45961;53.574;55.878;2024-01-16T04:37:48;100963.16;;;-15.72;68.02
60089;BME280;45961;53.574;55.878;2024-01-16T04:38:49;100962.25;;;-15.73;67.98
60089;BME280;45961;53.574;55.878;2024-01-16T04:39:50;100961.06;;;-15.69;67.95
60089;BME280;45961;53.574;55.878;2024-01-16T04:40:50;100966.56;;;-15.64;67.94
60089;BME280;45961;53.574;55.878;2024-01-16T04:41:51;100967.81;;;-15.61;68.05
60089;BME280;45961;53.574;55.878;2024-01-16T04:42:52;100967.81;;;-15.61;67.82
60089;BME280;45961;53.574;55.878;2024-01-16T04:43:52;100969.59;;;-15.60;67.90
60089;BME280;45961;53.574;55.878;2024-01-16T04:44:53;100969.25;;;-15.56;67.97
60089;BME280;45961;53.574;55.878;2024-01-16T04:45:54;100969.59;;;-15.60;67.82
60089;BME280;45961;53.574;55.878;2024-01-16T04:46:55;100957.44;;;-15.51;68.01
60089;BME280;45961;53.574;55.878;2024-01-16T04:47:59;100956.69;;;-15.57;67.93
60089;BME280;45961;53.574;55.878;2024-01-16T04:48:59;100955.97;;;-15.56;67.89
60089;BME280;45961;53.574;55.878;2024-01-16T04:50:00;100955.41;;;-15.61;68.06
60089;BME280;45961;53.574;55.878;2024-01-16T04:51:01;100956.16;;;-15.55;68.08
60089;BME280;45961;53.574;55.878;2024-01-16T04:52:03;100951.88;;;-15.56;68.20
60089;BME280;45961;53.574;55.878;2024-01-16T04:53:04;100957.06;;;-15.54;68.20
60089;BME280;45961;53.574;55.878;2024-01-16T04:54:05;100958.31;;;-15.51;68.22
60089;BME280;45961;53.574;55.878;2024-01-16T04:55:06;100960.59;;;-15.52;68.18
60089;BME280;45961;53.574;55.878;2024-01-16T04:56:07;100956.84;;;-15.56;68.37
60089;BME280;45961;53.574;55.878;2024-01-16T04:57:08;100955.50;;;-15.47;68.40
60089;BME280;45961;53.574;55.878;2024-01-16T04:58:09;100955.13;;;-15.50;68.44
60089;BME280;45961;53.574;55.878;2024-01-16T04:59:10;100947.88;;;-15.48;68.42
60089;BME280;45961;53.574;55.878;2024-01-16T05:00:11;100934.25;;;-15.45;68.64
60089;BME280;45961;53.574;55.878;2024-01-16T05:01:12;100927.34;;;-15.40;68.71
60089;BME280;45961;53.574;55.878;2024-01-16T05:02:13;100918.34;;;-15.32;68.73
60089;BME280;45961;53.574;55.878;2024-01-16T05:03:16;100919.44;;;-15.30;68.81
60089;BME280;45961;53.574;55.878;2024-01-16T05:04:17;100909.34;;;-15.25;68.95
60089;BME280;45961;53.574;55.878;2024-01-16T05:05:18;100909.72;;;-15.22;68.95
60089;BME280;45961;53.574;55.878;2024-01-16T05:06:18;100913.28;;;-15.20;69.02
60089;BME280;45961;53.574;55.878;2024-01-16T05:07:19;100912.25;;;-15.14;69.44
60089;BME280;45961;53.574;55.878;2024-01-16T05:08:21;100908.00;;;-15.08;69.29
60089;BME280;45961;53.574;55.878;2024-01-16T05:09:22;100905.84;;;-15.12;69.52
60089;BME280;45961;53.574;55.878;2024-01-16T05:10:23;100901.63;;;-15.06;69.71
60089;BME280;45961;53.574;55.878;2024-01-16T05:11:23;100892.59;;;-15.06;69.69
60089;BME280;45961;53.574;55.878;2024-01-16T05:12:24;100892.22;;;-15.09;69.79